sensor_id;sensor_type;location;lat;lon;timestamp;P1;durP1;ratioP1;P2;durP2;ratioP2
68800;SDS011;55784;50.734;7.086;2023-07-31T00:00:11;7.30;;;1.90;;
68800;SDS011;55784;50.734;7.086;2023-07-31T00:02:37;6.40;;;1.80;;
68800;SDS011;55784;50.734;7.086;2023-07-31T00:05:03;6.65;;;1.92;;
68800;SDS011;55784;50.734;7.086;2023-07-31T00:07:28;7.30;;;1.80;;
68800;SDS011;55784;50.734;7.086;2023-07-31T00:09:54;7.20;;;1.73;;
68800;SDS011;55784;50.734;7.086;2023-07-31T00:12:21;7.87;;;1.90;;
68800;SDS011;55784;50.734;7.086;2023-07-31T00:14:47;6.80;;;1.88;;
68800;SDS011;55784;50.734;7.086;2023-07-31T00:17:12;7.80;;;1.90;;
68800;SDS011;55784;50.734;7.086;2023-07-31T00:19:37;5.30;;;1.60;;
68800;SDS011;55784;50.734;7.086;2023-07-31T00:22:03;8.13;;;1.90;;
68800;SDS011;55784;50.734;7.086;2023-07-31T00:24:28;7.10;;;1.88;;
68800;SDS011;55784;50.734;7.086;2023-07-31T00:26:54;5.93;;;1.70;;
68800;SDS011;55784;50.734;7.086;2023-07-31T00:29:19;6.23;;;1.70;;
68800;SDS011;55784;50.734;7.086;2023-07-31T00:31:44;5.67;;;1.57;;
68800;SDS011;55784;50.734;7.086;2023-07-31T00:34:09;6.60;;;1.90;;
68800;SDS011;55784;50.734;7.086;2023-07-31T00:36:35;6.37;;;1.60;;
68800;SDS011;55784;50.734;7.086;2023-07-31T00:39:00;6.40;;;1.70;;
68800;SDS011;55784;50.734;7.086;2023-07-31T00:41:26;5.27;;;1.50;;
68800;SDS011;55784;50.734;7.086;2023-07-31T00:43:51;5.50;;;1.43;;
68800;SDS011;55784;50.734;7.086;2023-07-31T00:46:16;5.70;;;1.53;;
68800;SDS011;55784;50.734;7.086;2023-07-31T00:48:42;6.17;;;1.50;;
68800;SDS011;55784;50.734;7.086;2023-07-31T00:51:07;5.82;;;1.42;;
68800;SDS011;55784;50.734;7.086;2023-07-31T00:53:33;6.87;;;1.60;;
68800;SDS011;55784;50.734;7.086;2023-07-31T00:55:59;6.28;;;1.58;;
68800;SDS011;55784;50.734;7.086;2023-07-31T00:58:24;4.87;;;1.30;;
68800;SDS011;55784;50.734;7.086;2023-07-31T01:00:49;6.80;;;1.80;;
68800;SDS011;55784;50.734;7.086;2023-07-31T01:03:15;5.35;;;1.50;;
68800;SDS011;55784;50.734;7.086;2023-07-31T01:06:00;6.30;;;1.47;;
68800;SDS011;55784;50.734;7.086;2023-07-31T01:08:44;6.38;;;1.73;;
68800;SDS011;55784;50.734;7.086;2023-07-31T01:11:28;4.70;;;1.40;;
68800;SDS011;55784;50.734;7.086;2023-07-31T01:13:56;6.78;;;1.92;;
68800;SDS011;55784;50.734;7.086;2023-07-31T01:16:22;7.10;;;1.70;;
68800;SDS011;55784;50.734;7.086;2023-07-31T01:18:47;7.03;;;1.55;;
68800;SDS011;55784;50.734;7.086;2023-07-31T01:26:58;5.95;;;1.20;;
68800;SDS011;55784;50.734;7.086;2023-07-31T01:32:13;5.70;;;1.48;;
68800;SDS011;55784;50.734;7.086;2023-07-31T01:34:39;5.10;;;1.30;;
68800;SDS011;55784;50.734;7.086;2023-07-31T01:37:06;6.43;;;1.42;;
68800;SDS011;55784;50.734;7.086;2023-07-31T01:39:31;4.90;;;1.40;;
68800;SDS011;55784;50.734;7.086;2023-07-31T01:41:56;7.33;;;1.50;;
68800;SDS011;55784;50.734;7.086;2023-07-31T01:44:22;5.50;;;1.60;;
68800;SDS011;55784;50.734;7.086;2023-07-31T01:46:47;5.47;;;1.63;;
68800;SDS011;55784;50.734;7.086;2023-07-31T01:49:13;7.17;;;1.50;;
68800;SDS011;55784;50.734;7.086;2023-07-31T01:51:38;5.67;;;1.40;;
68800;SDS011;55784;50.734;7.086;2023-07-31T01:54:03;4.95;;;1.40;;
68800;SDS011;55784;50.734;7.086;2023-07-31T01:56:29;5.77;;;1.40;;
68800;SDS011;55784;50.734;7.086;2023-07-31T01:58:54;6.57;;;1.50;;
68800;SDS011;55784;50.734;7.086;2023-07-31T02:01:19;5.60;;;1.60;;
68800;SDS011;55784;50.734;7.086;2023-07-31T02:03:45;6.47;;;1.70;;
68800;SDS011;55784;50.734;7.086;2023-07-31T02:06:10;6.90;;;1.87;;
68800;SDS011;55784;50.734;7.086;2023-07-31T02:08:35;5.87;;;1.47;;
68800;SDS011;55784;50.734;7.086;2023-07-31T02:11:01;7.53;;;1.60;;
68800;SDS011;55784;50.734;7.086;2023-07-31T02:13:26;5.67;;;1.60;;
68800;SDS011;55784;50.734;7.086;2023-07-31T02:15:51;6.13;;;1.50;;
68800;SDS011;55784;50.734;7.086;2023-07-31T02:18:17;6.70;;;1.77;;
68800;SDS011;55784;50.734;7.086;2023-07-31T02:20:42;7.27;;;1.80;;
68800;SDS011;55784;50.734;7.086;2023-07-31T02:23:08;6.35;;;1.70;;
68800;SDS011;55784;50.734;7.086;2023-07-31T02:25:33;6.67;;;1.80;;
68800;SDS011;55784;50.734;7.086;2023-07-31T02:27:58;6.83;;;1.97;;
68800;SDS011;55784;50.734;7.086;2023-07-31T02:30:24;5.43;;;1.63;;
68800;SDS011;55784;50.734;7.086;2023-07-31T02:32:49;5.83;;;1.50;;
68800;SDS011;55784;50.734;7.086;2023-07-31T02:35:15;7.23;;;1.70;;
68800;SDS011;55784;50.734;7.086;2023-07-31T02:37:41;6.30;;;1.40;;
68800;SDS011;55784;50.734;7.086;2023-07-31T02:40:07;6.25;;;1.80;;
68800;SDS011;55784;50.734;7.086;2023-07-31T02:42:32;6.00;;;1.70;;
68800;SDS011;55784;50.734;7.086;2023-07-31T02:44:58;7.63;;;1.70;;
68800;SDS011;55784;50.734;7.086;2023-07-31T02:47:23;6.73;;;1.70;;
68800;SDS011;55784;50.734;7.086;2023-07-31T02:49:48;6.87;;;1.70;;
68800;SDS011;55784;50.734;7.086;2023-07-31T02:52:14;6.67;;;1.70;;
68800;SDS011;55784;50.734;7.086;2023-07-31T02:54:39;7.37;;;1.80;;
68800;SDS011;55784;50.734;7.086;2023-07-31T02:57:04;5.20;;;1.60;;
68800;SDS011;55784;50.734;7.086;2023-07-31T02:59:30;5.80;;;1.53;;
68800;SDS011;55784;50.734;7.086;2023-07-31T03:01:55;5.80;;;1.70;;
68800;SDS011;55784;50.734;7.086;2023-07-31T03:04:20;7.30;;;1.70;;
68800;SDS011;55784;50.734;7.086;2023-07-31T03:06:46;7.33;;;1.70;;
68800;SDS011;55784;50.734;7.086;2023-07-31T03:09:11;6.03;;;1.50;;
68800;SDS011;55784;50.734;7.086;2023-07-31T03:11:36;6.43;;;1.63;;
68800;SDS011;55784;50.734;7.086;2023-07-31T03:14:02;7.37;;;1.70;;
68800;SDS011;55784;50.734;7.086;2023-07-31T03:16:27;7.07;;;1.73;;
68800;SDS011;55784;50.734;7.086;2023-07-31T03:18:52;5.93;;;1.60;;
68800;SDS011;55784;50.734;7.086;2023-07-31T03:21:19;6.45;;;1.60;;
68800;SDS011;55784;50.734;7.086;2023-07-31T03:23:44;7.00;;;1.90;;
68800;SDS011;55784;50.734;7.086;2023-07-31T03:26:10;6.60;;;1.80;;
68800;SDS011;55784;50.734;7.086;2023-07-31T03:28:35;6.20;;;1.70;;
68800;SDS011;55784;50.734;7.086;2023-07-31T03:31:01;6.43;;;1.70;;
68800;SDS011;55784;50.734;7.086;2023-07-31T03:33:26;6.37;;;1.80;;
68800;SDS011;55784;50.734;7.086;2023-07-31T03:35:52;8.07;;;1.87;;
68800;SDS011;55784;50.734;7.086;2023-07-31T03:38:17;6.60;;;1.70;;
68800;SDS011;55784;50.734;7.086;2023-07-31T03:40:43;6.32;;;1.80;;
68800;SDS011;55784;50.734;7.086;2023-07-31T03:43:08;6.43;;;1.87;;
68800;SDS011;55784;50.734;7.086;2023-07-31T03:45:34;6.60;;;1.87;;
68800;SDS011;55784;50.734;7.086;2023-07-31T03:47:59;6.40;;;1.60;;
68800;SDS011;55784;50.734;7.086;2023-07-31T03:50:24;7.50;;;1.70;;
68800;SDS011;55784;50.734;7.086;2023-07-31T03:52:50;8.07;;;1.70;;
68800;SDS011;55784;50.734;7.086;2023-07-31T03:55:15;7.27;;;1.90;;
68800;SDS011;55784;50.734;7.086;2023-07-31T03:57:41;6.77;;;1.80;;
68800;SDS011;55784;50.734;7.086;2023-07-31T04:00:06;7.13;;;1.80;;
68800;SDS011;55784;50.734;7.086;2023-07-31T04:02:32;6.60;;;1.80;;
68800;SDS011;55784;50.734;7.086;2023-07-31T04:04:58;6.35;;;2.50;;
68800;SDS011;55784;50.734;7.086;2023-07-31T04:07:23;6.73;;;1.87;;
68800;SDS011;55784;50.734;7.086;2023-07-31T04:09:48;5.93;;;1.87;;
68800;SDS011;55784;50.734;7.086;2023-07-31T04:12:14;7.97;;;2.03;;
68800;SDS011;55784;50.734;7.086;2023-07-31T04:14:39;6.60;;;1.83;;
68800;SDS011;55784;50.734;7.086;2023-07-31T04:17:04;7.40;;;2.47;;
68800;SDS011;55784;50.734;7.086;2023-07-31T04:19:30;9.67;;;2.20;;
68800;SDS011;55784;50.734;7.086;2023-07-31T04:21:55;6.13;;;1.90;;
68800;SDS011;55784;50.734;7.086;2023-07-31T04:24:20;9.07;;;2.33;;
68800;SDS011;55784;50.734;7.086;2023-07-31T04:26:52;7.32;;;1.90;;
68800;SDS011;55784;50.734;7.086;2023-07-31T04:29:18;6.77;;;2.10;;
68800;SDS011;55784;50.734;7.086;2023-07-31T04:31:43;8.00;;;2.45;;
68800;SDS011;55784;50.734;7.086;2023-07-31T04:34:09;6.87;;;2.13;;
68800;SDS011;55784;50.734;7.086;2023-07-31T04:36:34;6.70;;;2.00;;
68800;SDS011;55784;50.734;7.086;2023-07-31T04:39:00;6.30;;;2.00;;
68800;SDS011;55784;50.734;7.086;2023-07-31T04:41:26;5.90;;;1.90;;
68800;SDS011;55784;50.734;7.086;2023-07-31T04:43:51;7.67;;;2.00;;
68800;SDS011;55784;50.734;7.086;2023-07-31T04:46:17;6.50;;;2.00;;
68800;SDS011;55784;50.734;7.086;2023-07-31T04:48:42;5.60;;;1.80;;
68800;SDS011;55784;50.734;7.086;2023-07-31T04:51:08;8.30;;;1.90;;
68800;SDS011;55784;50.734;7.086;2023-07-31T04:53:34;6.68;;;2.00;;
68800;SDS011;55784;50.734;7.086;2023-07-31T04:55:59;8.03;;;2.07;;
68800;SDS011;55784;50.734;7.086;2023-07-31T04:58:25;7.03;;;1.80;;
68800;SDS011;55784;50.734;7.086;2023-07-31T05:00:50;7.30;;;2.05;;
68800;SDS011;55784;50.734;7.086;2023-07-31T05:03:15;7.67;;;2.00;;
68800;SDS011;55784;50.734;7.086;2023-07-31T05:05:41;9.30;;;2.20;;
68800;SDS011;55784;50.734;7.086;2023-07-31T05:08:06;9.93;;;2.27;;
68800;SDS011;55784;50.734;7.086;2023-07-31T05:10:31;7.93;;;1.93;;
68800;SDS011;55784;50.734;7.086;2023-07-31T05:12:57;8.03;;;2.30;;
68800;SDS011;55784;50.734;7.086;2023-07-31T05:15:22;6.53;;;2.00;;
68800;SDS011;55784;50.734;7.086;2023-07-31T05:17:48;6.18;;;2.08;;
68800;SDS011;55784;50.734;7.086;2023-07-31T05:20:13;6.90;;;2.00;;
68800;SDS011;55784;50.734;7.086;2023-07-31T05:22:39;7.07;;;2.10;;
68800;SDS011;55784;50.734;7.086;2023-07-31T05:25:05;7.70;;;2.13;;
68800;SDS011;55784;50.734;7.086;2023-07-31T05:27:31;8.43;;;1.88;;
68800;SDS011;55784;50.734;7.086;2023-07-31T05:29:56;6.63;;;2.00;;
68800;SDS011;55784;50.734;7.086;2023-07-31T05:32:21;5.73;;;1.80;;
68800;SDS011;55784;50.734;7.086;2023-07-31T05:34:47;7.40;;;2.17;;
68800;SDS011;55784;50.734;7.086;2023-07-31T05:37:13;8.02;;;2.10;;
68800;SDS011;55784;50.734;7.086;2023-07-31T05:39:38;6.38;;;2.00;;
68800;SDS011;55784;50.734;7.086;2023-07-31T05:42:04;6.77;;;1.90;;
68800;SDS011;55784;50.734;7.086;2023-07-31T05:44:30;6.13;;;2.08;;
68800;SDS011;55784;50.734;7.086;2023-07-31T05:46:55;6.43;;;1.90;;
68800;SDS011;55784;50.734;7.086;2023-07-31T05:49:20;7.27;;;2.00;;
68800;SDS011;55784;50.734;7.086;2023-07-31T05:51:46;6.50;;;1.80;;
68800;SDS011;55784;50.734;7.086;2023-07-31T05:54:11;5.93;;;1.77;;
68800;SDS011;55784;50.734;7.086;2023-07-31T05:56:36;5.53;;;1.67;;
68800;SDS011;55784;50.734;7.086;2023-07-31T05:59:02;6.57;;;1.67;;
68800;SDS011;55784;50.734;7.086;2023-07-31T06:01:28;7.00;;;1.67;;
68800;SDS011;55784;50.734;7.086;2023-07-31T06:03:53;5.67;;;1.70;;
68800;SDS011;55784;50.734;7.086;2023-07-31T06:06:18;6.15;;;2.00;;
68800;SDS011;55784;50.734;7.086;2023-07-31T06:08:44;6.17;;;1.80;;
68800;SDS011;55784;50.734;7.086;2023-07-31T06:11:09;8.60;;;1.90;;
68800;SDS011;55784;50.734;7.086;2023-07-31T06:13:35;6.57;;;1.80;;
68800;SDS011;55784;50.734;7.086;2023-07-31T06:16:00;7.63;;;2.00;;
68800;SDS011;55784;50.734;7.086;2023-07-31T06:18:30;6.78;;;1.60;;
68800;SDS011;55784;50.734;7.086;2023-07-31T06:20:55;6.90;;;1.73;;
68800;SDS011;55784;50.734;7.086;2023-07-31T06:23:21;6.63;;;1.87;;
68800;SDS011;55784;50.734;7.086;2023-07-31T06:25:46;6.93;;;2.03;;
68800;SDS011;55784;50.734;7.086;2023-07-31T06:28:11;7.90;;;2.17;;
68800;SDS011;55784;50.734;7.086;2023-07-31T06:30:37;7.83;;;2.20;;
68800;SDS011;55784;50.734;7.086;2023-07-31T06:33:02;6.43;;;1.88;;
68800;SDS011;55784;50.734;7.086;2023-07-31T06:35:28;6.50;;;2.20;;
68800;SDS011;55784;50.734;7.086;2023-07-31T06:37:53;8.80;;;2.10;;
68800;SDS011;55784;50.734;7.086;2023-07-31T06:40:18;9.77;;;2.50;;
68800;SDS011;55784;50.734;7.086;2023-07-31T06:42:44;7.23;;;2.20;;
68800;SDS011;55784;50.734;7.086;2023-07-31T06:45:10;10.43;;;2.33;;
68800;SDS011;55784;50.734;7.086;2023-07-31T06:47:35;8.48;;;2.30;;
68800;SDS011;55784;50.734;7.086;2023-07-31T06:50:01;10.13;;;2.60;;
68800;SDS011;55784;50.734;7.086;2023-07-31T06:52:26;9.03;;;2.33;;
68800;SDS011;55784;50.734;7.086;2023-07-31T06:55:02;7.13;;;2.20;;
68800;SDS011;55784;50.734;7.086;2023-07-31T06:57:29;7.22;;;2.22;;
68800;SDS011;55784;50.734;7.086;2023-07-31T06:59:54;8.03;;;2.13;;
68800;SDS011;55784;50.734;7.086;2023-07-31T07:02:20;6.70;;;2.20;;
68800;SDS011;55784;50.734;7.086;2023-07-31T07:04:45;6.70;;;2.17;;
68800;SDS011;55784;50.734;7.086;2023-07-31T07:07:11;9.45;;;2.75;;
68800;SDS011;55784;50.734;7.086;2023-07-31T07:09:36;8.40;;;2.63;;
68800;SDS011;55784;50.734;7.086;2023-07-31T07:12:01;7.60;;;2.33;;
68800;SDS011;55784;50.734;7.086;2023-07-31T07:14:27;6.80;;;2.30;;
68800;SDS011;55784;50.734;7.086;2023-07-31T07:16:52;8.77;;;2.73;;
68800;SDS011;55784;50.734;7.086;2023-07-31T07:19:17;8.30;;;2.20;;
68800;SDS011;55784;50.734;7.086;2023-07-31T07:21:43;7.70;;;2.50;;
68800;SDS011;55784;50.734;7.086;2023-07-31T07:24:08;6.87;;;2.50;;
68800;SDS011;55784;50.734;7.086;2023-07-31T07:26:33;7.20;;;2.07;;
68800;SDS011;55784;50.734;7.086;2023-07-31T07:28:59;6.17;;;2.10;;
68800;SDS011;55784;50.734;7.086;2023-07-31T07:31:27;8.15;;;2.13;;
68800;SDS011;55784;50.734;7.086;2023-07-31T07:33:52;8.03;;;2.30;;
68800;SDS011;55784;50.734;7.086;2023-07-31T07:36:17;7.13;;;2.50;;
68800;SDS011;55784;50.734;7.086;2023-07-31T07:38:43;7.73;;;2.37;;
68800;SDS011;55784;50.734;7.086;2023-07-31T07:41:08;6.87;;;2.43;;
68800;SDS011;55784;50.734;7.086;2023-07-31T07:43:33;7.43;;;2.33;;
68800;SDS011;55784;50.734;7.086;2023-07-31T07:45:59;8.67;;;2.40;;
68800;SDS011;55784;50.734;7.086;2023-07-31T07:48:24;7.20;;;2.50;;
68800;SDS011;55784;50.734;7.086;2023-07-31T07:50:50;7.97;;;2.30;;
68800;SDS011;55784;50.734;7.086;2023-07-31T07:53:16;10.30;;;2.42;;
68800;SDS011;55784;50.734;7.086;2023-07-31T07:55:41;8.03;;;2.70;;
68800;SDS011;55784;50.734;7.086;2023-07-31T07:58:07;7.00;;;2.30;;
68800;SDS011;55784;50.734;7.086;2023-07-31T08:00:33;8.30;;;2.50;;
68800;SDS011;55784;50.734;7.086;2023-07-31T08:02:58;7.67;;;2.40;;
68800;SDS011;55784;50.734;7.086;2023-07-31T08:05:23;9.43;;;2.30;;
68800;SDS011;55784;50.734;7.086;2023-07-31T08:07:49;8.13;;;2.40;;
68800;SDS011;55784;50.734;7.086;2023-07-31T08:10:14;7.50;;;2.63;;
68800;SDS011;55784;50.734;7.086;2023-07-31T08:12:39;8.93;;;2.53;;
68800;SDS011;55784;50.734;7.086;2023-07-31T08:15:05;8.77;;;2.60;;
68800;SDS011;55784;50.734;7.086;2023-07-31T08:17:31;7.00;;;2.30;;
68800;SDS011;55784;50.734;7.086;2023-07-31T08:19:56;9.48;;;2.40;;
68800;SDS011;55784;50.734;7.086;2023-07-31T08:22:23;8.93;;;2.60;;
68800;SDS011;55784;50.734;7.086;2023-07-31T08:24:48;8.15;;;2.38;;
68800;SDS011;55784;50.734;7.086;2023-07-31T08:27:14;7.97;;;2.30;;
68800;SDS011;55784;50.734;7.086;2023-07-31T08:29:39;7.63;;;2.40;;
68800;SDS011;55784;50.734;7.086;2023-07-31T08:32:05;6.67;;;2.07;;
68800;SDS011;55784;50.734;7.086;2023-07-31T08:34:30;9.52;;;2.60;;
68800;SDS011;55784;50.734;7.086;2023-07-31T08:36:56;8.43;;;2.50;;
68800;SDS011;55784;50.734;7.086;2023-07-31T08:39:21;7.63;;;2.60;;
68800;SDS011;55784;50.734;7.086;2023-07-31T08:41:47;7.47;;;2.50;;
68800;SDS011;55784;50.734;7.086;2023-07-31T08:44:12;9.60;;;3.53;;
68800;SDS011;55784;50.734;7.086;2023-07-31T08:46:39;8.00;;;2.60;;
68800;SDS011;55784;50.734;7.086;2023-07-31T08:49:05;6.13;;;2.00;;
68800;SDS011;55784;50.734;7.086;2023-07-31T08:59:09;9.23;;;2.73;;
68800;SDS011;55784;50.734;7.086;2023-07-31T09:04:27;7.82;;;2.50;;
68800;SDS011;55784;50.734;7.086;2023-07-31T09:07:13;7.78;;;2.20;;
68800;SDS011;55784;50.734;7.086;2023-07-31T09:10:28;10.23;;;3.67;;
68800;SDS011;55784;50.734;7.086;2023-07-31T09:17:27;7.57;;;2.80;;
68800;SDS011;55784;50.734;7.086;2023-07-31T09:33:21;14.45;;;5.88;;
68800;SDS011;55784;50.734;7.086;2023-07-31T09:48:45;8.02;;;2.58;;
68800;SDS011;55784;50.734;7.086;2023-07-31T09:55:09;7.55;;;2.30;;
68800;SDS011;55784;50.734;7.086;2023-07-31T09:57:45;6.78;;;2.05;;
68800;SDS011;55784;50.734;7.086;2023-07-31T10:00:36;5.50;;;1.70;;
68800;SDS011;55784;50.734;7.086;2023-07-31T10:06:19;6.82;;;2.00;;
68800;SDS011;55784;50.734;7.086;2023-07-31T10:09:01;5.72;;;1.92;;
68800;SDS011;55784;50.734;7.086;2023-07-31T10:11:32;5.28;;;1.52;;
68800;SDS011;55784;50.734;7.086;2023-07-31T10:14:31;5.53;;;1.50;;
68800;SDS011;55784;50.734;7.086;2023-07-31T10:17:25;5.70;;;1.80;;
68800;SDS011;55784;50.734;7.086;2023-07-31T10:20:34;5.55;;;1.60;;
68800;SDS011;55784;50.734;7.086;2023-07-31T10:23:06;6.43;;;1.73;;
68800;SDS011;55784;50.734;7.086;2023-07-31T10:25:47;5.38;;;1.50;;
68800;SDS011;55784;50.734;7.086;2023-07-31T10:31:26;6.45;;;2.00;;
68800;SDS011;55784;50.734;7.086;2023-07-31T10:40:23;5.20;;;1.70;;
68800;SDS011;55784;50.734;7.086;2023-07-31T10:43:01;5.23;;;1.70;;
68800;SDS011;55784;50.734;7.086;2023-07-31T10:45:31;4.82;;;1.55;;
68800;SDS011;55784;50.734;7.086;2023-07-31T10:48:21;5.03;;;1.50;;
68800;SDS011;55784;50.734;7.086;2023-07-31T10:50:54;4.57;;;1.50;;
68800;SDS011;55784;50.734;7.086;2023-07-31T10:53:38;5.63;;;1.58;;
68800;SDS011;55784;50.734;7.086;2023-07-31T10:56:09;5.67;;;1.30;;
68800;SDS011;55784;50.734;7.086;2023-07-31T10:58:51;4.47;;;1.33;;
68800;SDS011;55784;50.734;7.086;2023-07-31T11:01:49;5.00;;;1.30;;
68800;SDS011;55784;50.734;7.086;2023-07-31T11:04:41;4.35;;;1.20;;
68800;SDS011;55784;50.734;7.086;2023-07-31T11:07:22;5.95;;;1.50;;
68800;SDS011;55784;50.734;7.086;2023-07-31T11:10:12;4.53;;;1.10;;
68800;SDS011;55784;50.734;7.086;2023-07-31T11:16:18;5.28;;;1.08;;
68800;SDS011;55784;50.734;7.086;2023-07-31T11:19:02;5.68;;;1.20;;
68800;SDS011;55784;50.734;7.086;2023-07-31T11:21:38;4.72;;;1.23;;
68800;SDS011;55784;50.734;7.086;2023-07-31T11:24:07;3.33;;;1.00;;
68800;SDS011;55784;50.734;7.086;2023-07-31T11:26:49;4.47;;;1.10;;
68800;SDS011;55784;50.734;7.086;2023-07-31T11:29:25;4.13;;;1.15;;
68800;SDS011;55784;50.734;7.086;2023-07-31T11:32:01;4.00;;;1.20;;
68800;SDS011;55784;50.734;7.086;2023-07-31T11:34:37;4.97;;;1.20;;
68800;SDS011;55784;50.734;7.086;2023-07-31T11:45:17;3.78;;;1.15;;
68800;SDS011;55784;50.734;7.086;2023-07-31T11:51:03;4.28;;;1.00;;
68800;SDS011;55784;50.734;7.086;2023-07-31T11:54:23;4.03;;;1.17;;
68800;SDS011;55784;50.734;7.086;2023-07-31T11:56:51;6.40;;;1.27;;
68800;SDS011;55784;50.734;7.086;2023-07-31T11:59:24;4.80;;;1.30;;
68800;SDS011;55784;50.734;7.086;2023-07-31T12:01:50;3.80;;;1.00;;
68800;SDS011;55784;50.734;7.086;2023-07-31T12:04:18;4.40;;;1.10;;
68800;SDS011;55784;50.734;7.086;2023-07-31T12:06:44;4.43;;;1.07;;
68800;SDS011;55784;50.734;7.086;2023-07-31T12:09:10;5.60;;;1.00;;
68800;SDS011;55784;50.734;7.086;2023-07-31T12:11:45;4.07;;;1.10;;
68800;SDS011;55784;50.734;7.086;2023-07-31T12:14:24;4.00;;;1.10;;
68800;SDS011;55784;50.734;7.086;2023-07-31T12:17:01;7.63;;;1.23;;
68800;SDS011;55784;50.734;7.086;2023-07-31T12:19:30;5.55;;;1.30;;
68800;SDS011;55784;50.734;7.086;2023-07-31T12:21:56;6.10;;;1.52;;
68800;SDS011;55784;50.734;7.086;2023-07-31T12:24:21;4.45;;;1.20;;
68800;SDS011;55784;50.734;7.086;2023-07-31T12:26:47;5.47;;;1.60;;
68800;SDS011;55784;50.734;7.086;2023-07-31T12:29:13;5.38;;;1.70;;
68800;SDS011;55784;50.734;7.086;2023-07-31T12:31:40;5.27;;;1.70;;
68800;SDS011;55784;50.734;7.086;2023-07-31T12:34:14;5.90;;;1.60;;
68800;SDS011;55784;50.734;7.086;2023-07-31T12:36:42;5.88;;;1.90;;
68800;SDS011;55784;50.734;7.086;2023-07-31T12:39:07;5.27;;;1.80;;
68800;SDS011;55784;50.734;7.086;2023-07-31T12:41:33;6.60;;;1.93;;
68800;SDS011;55784;50.734;7.086;2023-07-31T12:43:59;5.63;;;2.10;;
68800;SDS011;55784;50.734;7.086;2023-07-31T12:46:24;5.30;;;2.00;;
68800;SDS011;55784;50.734;7.086;2023-07-31T12:48:49;6.17;;;1.90;;
68800;SDS011;55784;50.734;7.086;2023-07-31T12:51:15;6.40;;;2.30;;
68800;SDS011;55784;50.734;7.086;2023-07-31T12:53:40;6.47;;;2.50;;
68800;SDS011;55784;50.734;7.086;2023-07-31T12:56:05;6.25;;;2.17;;
68800;SDS011;55784;50.734;7.086;2023-07-31T12:58:31;6.73;;;2.33;;
68800;SDS011;55784;50.734;7.086;2023-07-31T13:00:56;6.63;;;2.30;;
68800;SDS011;55784;50.734;7.086;2023-07-31T13:03:22;6.90;;;2.33;;
68800;SDS011;55784;50.734;7.086;2023-07-31T13:05:47;6.05;;;2.30;;
68800;SDS011;55784;50.734;7.086;2023-07-31T13:08:13;6.40;;;2.30;;
68800;SDS011;55784;50.734;7.086;2023-07-31T13:10:40;6.72;;;2.33;;
68800;SDS011;55784;50.734;7.086;2023-07-31T13:13:06;6.00;;;2.20;;
68800;SDS011;55784;50.734;7.086;2023-07-31T13:15:31;6.20;;;2.30;;
68800;SDS011;55784;50.734;7.086;2023-07-31T13:17:56;6.00;;;2.27;;
68800;SDS011;55784;50.734;7.086;2023-07-31T13:20:22;6.17;;;2.40;;
68800;SDS011;55784;50.734;7.086;2023-07-31T13:22:47;7.07;;;2.17;;
68800;SDS011;55784;50.734;7.086;2023-07-31T13:25:13;6.27;;;2.43;;
68800;SDS011;55784;50.734;7.086;2023-07-31T13:27:39;6.32;;;2.28;;
68800;SDS011;55784;50.734;7.086;2023-07-31T13:30:05;6.43;;;2.20;;
68800;SDS011;55784;50.734;7.086;2023-07-31T13:32:31;6.65;;;2.15;;
68800;SDS011;55784;50.734;7.086;2023-07-31T13:34:56;6.23;;;1.90;;
68800;SDS011;55784;50.734;7.086;2023-07-31T13:37:22;6.70;;;2.20;;
68800;SDS011;55784;50.734;7.086;2023-07-31T13:39:47;7.73;;;2.00;;
68800;SDS011;55784;50.734;7.086;2023-07-31T13:42:15;6.43;;;2.10;;
68800;SDS011;55784;50.734;7.086;2023-07-31T13:44:41;5.53;;;1.73;;
68800;SDS011;55784;50.734;7.086;2023-07-31T13:47:07;6.53;;;1.83;;
68800;SDS011;55784;50.734;7.086;2023-07-31T13:49:36;4.35;;;1.50;;
68800;SDS011;55784;50.734;7.086;2023-07-31T13:52:03;5.75;;;1.98;;
68800;SDS011;55784;50.734;7.086;2023-07-31T13:54:29;5.30;;;1.83;;
68800;SDS011;55784;50.734;7.086;2023-07-31T13:56:58;5.00;;;1.60;;
68800;SDS011;55784;50.734;7.086;2023-07-31T13:59:23;4.97;;;1.63;;
68800;SDS011;55784;50.734;7.086;2023-07-31T14:01:49;5.40;;;1.80;;
68800;SDS011;55784;50.734;7.086;2023-07-31T14:04:15;5.30;;;1.70;;
68800;SDS011;55784;50.734;7.086;2023-07-31T14:06:40;5.57;;;1.83;;
68800;SDS011;55784;50.734;7.086;2023-07-31T14:09:06;5.47;;;2.20;;
68800;SDS011;55784;50.734;7.086;2023-07-31T14:11:31;5.60;;;1.90;;
68800;SDS011;55784;50.734;7.086;2023-07-31T14:13:57;6.95;;;2.30;;
68800;SDS011;55784;50.734;7.086;2023-07-31T14:16:23;5.73;;;1.93;;
68800;SDS011;55784;50.734;7.086;2023-07-31T14:18:48;6.25;;;1.98;;
68800;SDS011;55784;50.734;7.086;2023-07-31T14:21:14;5.70;;;1.93;;
68800;SDS011;55784;50.734;7.086;2023-07-31T14:23:40;5.00;;;1.60;;
68800;SDS011;55784;50.734;7.086;2023-07-31T14:26:05;6.32;;;2.35;;
68800;SDS011;55784;50.734;7.086;2023-07-31T14:28:31;5.65;;;1.67;;
68800;SDS011;55784;50.734;7.086;2023-07-31T14:30:57;5.30;;;1.80;;
68800;SDS011;55784;50.734;7.086;2023-07-31T14:33:22;6.67;;;1.87;;
68800;SDS011;55784;50.734;7.086;2023-07-31T14:35:48;4.80;;;1.40;;
68800;SDS011;55784;50.734;7.086;2023-07-31T14:38:13;5.57;;;1.50;;
68800;SDS011;55784;50.734;7.086;2023-07-31T14:40:39;4.90;;;1.50;;
68800;SDS011;55784;50.734;7.086;2023-07-31T14:43:04;6.60;;;1.75;;
68800;SDS011;55784;50.734;7.086;2023-07-31T14:45:30;6.00;;;1.93;;
68800;SDS011;55784;50.734;7.086;2023-07-31T14:47:55;4.90;;;1.60;;
68800;SDS011;55784;50.734;7.086;2023-07-31T14:50:21;5.33;;;1.70;;
68800;SDS011;55784;50.734;7.086;2023-07-31T14:52:47;4.75;;;1.60;;
68800;SDS011;55784;50.734;7.086;2023-07-31T14:55:13;5.38;;;1.88;;
68800;SDS011;55784;50.734;7.086;2023-07-31T14:57:38;6.87;;;1.70;;
68800;SDS011;55784;50.734;7.086;2023-07-31T15:00:04;5.20;;;1.70;;
68800;SDS011;55784;50.734;7.086;2023-07-31T15:02:33;5.80;;;1.50;;
68800;SDS011;55784;50.734;7.086;2023-07-31T15:05:07;6.45;;;2.50;;
68800;SDS011;55784;50.734;7.086;2023-07-31T15:07:33;5.67;;;1.80;;
68800;SDS011;55784;50.734;7.086;2023-07-31T15:09:59;6.25;;;2.00;;
68800;SDS011;55784;50.734;7.086;2023-07-31T15:12:25;5.40;;;1.80;;
68800;SDS011;55784;50.734;7.086;2023-07-31T15:14:51;5.85;;;1.80;;
68800;SDS011;55784;50.734;7.086;2023-07-31T15:17:17;6.32;;;2.03;;
68800;SDS011;55784;50.734;7.086;2023-07-31T15:19:42;5.23;;;1.57;;
68800;SDS011;55784;50.734;7.086;2023-07-31T15:22:07;5.13;;;1.50;;
68800;SDS011;55784;50.734;7.086;2023-07-31T15:24:33;5.13;;;2.03;;
68800;SDS011;55784;50.734;7.086;2023-07-31T15:26:58;5.15;;;1.60;;
68800;SDS011;55784;50.734;7.086;2023-07-31T15:29:24;4.50;;;1.40;;
68800;SDS011;55784;50.734;7.086;2023-07-31T15:31:49;4.60;;;1.60;;
68800;SDS011;55784;50.734;7.086;2023-07-31T15:34:16;5.80;;;1.60;;
68800;SDS011;55784;50.734;7.086;2023-07-31T15:36:42;5.80;;;1.80;;
68800;SDS011;55784;50.734;7.086;2023-07-31T15:39:07;5.57;;;1.87;;
68800;SDS011;55784;50.734;7.086;2023-07-31T15:41:36;5.93;;;1.67;;
68800;SDS011;55784;50.734;7.086;2023-07-31T15:44:02;5.72;;;1.80;;
68800;SDS011;55784;50.734;7.086;2023-07-31T15:46:28;5.88;;;1.70;;
68800;SDS011;55784;50.734;7.086;2023-07-31T15:48:54;5.87;;;1.77;;
68800;SDS011;55784;50.734;7.086;2023-07-31T15:51:19;6.83;;;2.03;;
68800;SDS011;55784;50.734;7.086;2023-07-31T15:53:44;5.73;;;1.80;;
68800;SDS011;55784;50.734;7.086;2023-07-31T15:56:10;6.27;;;2.40;;
68800;SDS011;55784;50.734;7.086;2023-07-31T15:58:35;6.23;;;2.13;;
68800;SDS011;55784;50.734;7.086;2023-07-31T16:01:00;7.85;;;2.58;;
68800;SDS011;55784;50.734;7.086;2023-07-31T16:03:26;6.07;;;2.10;;
68800;SDS011;55784;50.734;7.086;2023-07-31T16:05:51;6.30;;;2.27;;
68800;SDS011;55784;50.734;7.086;2023-07-31T16:08:17;8.27;;;2.33;;
68800;SDS011;55784;50.734;7.086;2023-07-31T16:10:49;5.67;;;1.97;;